Time;durP1;ratioP1;P1;durP2;ratioP2;P2;SDS_P1;SDS_P2;PMS_P1;PMS_P2;Temp;Humidity;BMP_temperature;BMP_pressure;BME280_temperature;BME280_humidity;BME280_pressure;Samples;Min_cycle;Max_cycle;Signal;HPM_P1;HPM_P2
2022/08/30 00:02:05;;;;;;;5.12;3.85;;;;;;;17.57;84.78;100990.88;1431060;100;21144;-76
2022/08/30 00:04:34;;;;;;;4.85;3.17;;;;;;;17.55;85.00;100987.00;1457416;98;21537;-75
2022/08/30 00:07:02;;;;;;;3.80;3.20;;;;;;;17.57;85.13;100985.58;1430849;100;21385;-77
2022/08/30 00:09:31;;;;;;;6.72;3.33;;;;;;;17.58;84.95;100984.66;1457351;98;21147;-77
2022/08/30 00:11:59;;;;;;;4.42;3.33;;;;;;;17.57;85.15;100983.81;1430999;100;21093;-76
2022/08/30 00:14:26;;;;;;;4.42;3.10;;;;;;;17.57;84.92;100990.88;1457421;98;21147;-76
2022/08/30 00:16:53;;;;;;;4.72;3.50;;;;;;;17.56;84.91;100991.36;1430890;100;21187;-77
2022/08/30 00:19:20;;;;;;;5.45;3.22;;;;;;;17.54;84.92;100981.33;1457390;98;21179;-77
2022/08/30 00:21:47;;;;;;;4.80;3.25;;;;;;;17.54;84.81;100984.43;1430873;100;21072;-76
2022/08/30 00:24:15;;;;;;;4.10;3.42;;;;;;;17.50;84.87;100989.05;1457441;98;21540;-76
2022/08/30 00:26:42;;;;;;;4.78;3.45;;;;;;;17.47;84.91;100989.23;1459076;96;21013;-76
2022/08/30 00:29:09;;;;;;;4.75;3.35;;;;;;;17.45;84.76;100987.61;1619052;82;21174;-77
2022/08/30 00:31:37;;;;;;;5.40;3.22;;;;;;;17.41;84.92;100987.41;1745699;81;21101;-76
2022/08/30 00:34:04;;;;;;;5.35;3.90;;;;;;;17.39;85.09;100991.45;1741069;82;21054;-76
2022/08/30 00:36:30;;;;;;;5.00;3.58;;;;;;;17.40;84.93;100989.18;1741302;81;20996;-76
2022/08/30 00:38:58;;;;;;;4.95;3.77;;;;;;;17.37;84.93;100986.23;1740967;82;21011;-76
2022/08/30 00:41:25;;;;;;;4.90;3.70;;;;;;;17.34;84.96;100983.76;1741396;81;21082;-76
2022/08/30 00:43:52;;;;;;;4.97;3.20;;;;;;;17.32;84.92;100986.11;1740988;81;21035;-76
2022/08/30 00:46:19;;;;;;;5.08;3.47;;;;;;;17.28;84.93;100981.45;1741209;82;21007;-77
2022/08/30 00:48:48;;;;;;;4.53;3.62;;;;;;;17.23;85.00;100984.83;1740925;82;21493;-76
2022/08/30 00:51:18;;;;;;;4.12;2.85;;;;;;;17.17;84.88;100987.83;1741269;82;21007;-76
2022/08/30 00:53:49;;;;;;;5.37;3.50;;;;;;;17.05;84.86;100984.06;1743858;79;21047;-76
2022/08/30 00:56:18;;;;;;;4.45;3.40;;;;;;;16.95;84.71;100984.17;1739468;81;21127;-76
2022/08/30 00:58:50;;;;;;;4.42;3.47;;;;;;;16.83;84.79;100984.84;1753505;81;20948;-76
2022/08/30 01:01:18;;;;;;;9.95;3.90;;;;;;;16.69;84.91;100977.14;1749302;80;21044;-77
2022/08/30 01:03:47;;;;;;;4.78;3.42;;;;;;;16.63;84.78;100988.05;1740869;81;21044;-76
2022/08/30 01:06:15;;;;;;;4.30;3.60;;;;;;;16.54;84.97;100983.70;1739476;81;21337;-76
2022/08/30 01:08:45;;;;;;;6.33;3.45;;;;;;;16.47;85.13;100980.53;1739328;81;21122;-76
2022/08/30 01:11:14;;;;;;;;;;;;;;;16.37;85.00;100982.78;1731050;81;20993;-76
2022/08/30 01:13:41;;;;;;;4.70;3.47;;;;;;;16.28;85.23;100979.30;1738511;81;20795;-76
2022/08/30 01:16:09;;;;;;;5.70;3.80;;;;;;;16.19;85.32;100981.96;1741450;81;20980;-76
2022/08/30 01:18:37;;;;;;;5.00;3.35;;;;;;;16.17;85.79;100987.78;1739708;81;21000;-76
2022/08/30 01:21:36;;;;;;;4.83;3.27;;;;;;;16.09;85.61;100978.06;1741158;81;21531;-76
2022/08/30 01:24:06;;;;;;;5.90;3.55;;;;;;;15.99;85.46;100986.06;1737804;81;21095;-76
2022/08/30 01:26:35;;;;;;;4.42;3.65;;;;;;;15.84;85.46;100983.25;1720467;81;21660;-76
2022/08/30 01:29:07;;;;;;;4.00;3.37;;;;;;;15.74;85.75;100984.66;1738285;81;21032;-76
2022/08/30 01:31:35;;;;;;;3.62;3.08;;;;;;;15.65;85.67;100986.86;1755911;81;21141;-76
2022/08/30 01:34:06;;;;;;;6.12;3.90;;;;;;;15.56;86.00;100983.73;1766234;81;21893;-76
2022/08/30 01:36:36;;;;;;;3.72;3.17;;;;;;;15.51;86.16;100986.20;1739306;81;21036;-77
2022/08/30 01:39:04;;;;;;;4.47;3.50;;;;;;;15.42;86.20;100984.86;1739365;81;21051;-76
2022/08/30 01:41:34;;;;;;;4.65;3.65;;;;;;;15.36;86.33;100986.48;1739600;81;21489;-76
2022/08/30 01:44:09;;;;;;;5.17;3.67;;;;;;;15.28;86.51;100985.98;1739596;81;21529;-76
2022/08/30 01:46:41;;;;;;;7.72;3.95;;;;;;;15.21;86.64;100982.76;1747338;81;21482;-77
2022/08/30 01:49:12;;;;;;;4.87;3.70;;;;;;;15.17;86.86;100989.13;1755187;81;21038;-76
2022/08/30 01:51:40;;;;;;;4.92;4.00;;;;;;;15.12;87.02;100983.20;1726614;81;21047;-76
2022/08/30 01:54:09;;;;;;;5.58;4.15;;;;;;;15.07;87.02;100990.00;1741987;81;20928;-76
2022/08/30 01:56:36;;;;;;;6.30;3.85;;;;;;;15.01;86.97;100990.77;1744331;80;21036;-76
2022/08/30 01:59:04;;;;;;;5.50;3.90;;;;;;;14.95;87.12;100995.86;1744694;80;21234;-76
2022/08/30 02:01:35;;;;;;;4.35;3.92;;;;;;;14.90;87.42;100999.17;1745646;80;21011;-76
2022/08/30 02:04:03;;;;;;;4.87;3.77;;;;;;;14.88;87.50;100997.94;1754241;80;20987;-76
2022/08/30 02:06:30;;;;;;;6.17;4.22;;;;;;;14.85;87.61;100995.88;1744613;80;21015;-76
2022/08/30 02:08:58;;;;;;;5.87;4.03;;;;;;;14.84;88.09;100995.50;1744378;80;21050;-76
2022/08/30 02:11:25;;;;;;;4.90;3.75;;;;;;;14.81;87.72;100990.36;1744650;80;21171;-76
2022/08/30 02:13:53;;;;;;;4.92;3.70;;;;;;;14.76;87.80;100994.98;1744305;80;20988;-77
2022/08/30 02:16:21;;;;;;;5.50;3.40;;;;;;;14.73;88.12;100995.51;1744695;80;21445;-76
2022/08/30 02:18:51;;;;;;;6.12;4.50;;;;;;;14.70;88.04;100994.33;1767174;80;21031;-77
2022/08/30 02:21:19;;;;;;;5.65;3.65;;;;;;;14.66;88.12;100991.88;1753925;80;21504;-76
2022/08/30 02:23:46;;;;;;;6.92;3.98;;;;;;;14.64;88.45;100987.16;1746913;80;21155;-77
2022/08/30 02:26:14;;;;;;;5.87;3.62;;;;;;;14.61;88.40;100993.42;1744563;80;21047;-76
2022/08/30 02:28:41;;;;;;;4.00;3.60;;;;;;;14.60;88.49;100998.76;1750115;80;21055;-78
2022/08/30 02:31:08;;;;;;;4.78;3.62;;;;;;;14.58;88.44;100996.20;1770098;80;20999;-77
2022/08/30 02:33:36;;;;;;;6.50;3.65;;;;;;;14.53;88.50;100998.19;1766695;80;21066;-76
2022/08/30 02:36:06;;;;;;;5.33;3.58;;;;;;;14.51;88.31;101005.27;1771920;81;21731;-76
2022/08/30 02:38:34;;;;;;;3.85;3.37;;;;;;;14.48;88.67;101006.25;1771569;81;20983;-77
2022/08/30 02:41:01;;;;;;;6.45;3.90;;;;;;;14.46;88.75;101004.14;1771688;80;21583;-76
2022/08/30 02:43:28;;;;;;;5.12;3.80;;;;;;;14.47;89.17;101010.30;1770364;81;21023;-77
2022/08/30 02:45:55;;;;;;;4.65;3.77;;;;;;;14.49;89.50;101006.67;1751455;80;21058;-77
2022/08/30 02:48:23;;;;;;;5.60;4.00;;;;;;;14.49;89.44;101001.83;1762074;80;21123;-77
2022/08/30 02:50:52;;;;;;;6.15;3.58;;;;;;;14.49;89.62;101001.39;1745660;80;21430;-76
2022/08/30 02:53:20;;;;;;;4.83;3.92;;;;;;;14.51;89.53;101006.12;1754706;80;21084;-77
2022/08/30 02:55:48;;;;;;;6.35;3.83;;;;;;;14.52;89.89;101005.69;1749487;80;21031;-76
2022/08/30 02:58:15;;;;;;;6.33;4.62;;;;;;;14.54;89.95;101000.35;1749731;80;21607;-76
2022/08/30 03:00:42;;;;;;;5.55;4.28;;;;;;;14.57;90.21;100996.26;1749994;80;21669;-77
2022/08/30 03:03:09;;;;;;;6.60;4.12;;;;;;;14.56;90.05;101002.47;1757574;80;21066;-77
2022/08/30 03:05:36;;;;;;;6.17;4.30;;;;;;;14.61;90.42;101007.09;1765300;80;21468;-77
2022/08/30 03:08:03;;;;;;;6.92;4.30;;;;;;;14.62;90.34;101005.69;1772614;80;21639;-76
2022/08/30 03:10:30;;;;;;;6.25;4.17;;;;;;;14.66;90.78;101005.08;1749751;80;20995;-76
2022/08/30 03:12:57;;;;;;;5.97;4.55;;;;;;;14.67;90.73;101012.94;1749827;80;21128;-76
2022/08/30 03:15:24;;;;;;;6.75;5.25;;;;;;;14.69;90.78;101015.05;1749621;80;20988;-77
2022/08/30 03:17:53;;;;;;;6.22;5.08;;;;;;;14.74;91.26;101014.83;1752410;80;21033;-76
2022/08/30 03:20:22;;;;;;;7.75;5.15;;;;;;;14.79;91.46;101020.77;1773965;80;21053;-76
2022/08/30 03:22:50;;;;;;;7.25;5.33;;;;;;;14.83;91.38;101020.19;1753924;80;21534;-77
2022/08/30 03:25:23;;;;;;;6.42;5.03;;;;;;;14.86;91.55;101016.09;1750868;80;21527;-77
2022/08/30 03:27:49;;;;;;;7.55;5.83;;;;;;;14.94;91.92;101016.13;1751588;80;21019;-77
2022/08/30 03:30:18;;;;;;;7.37;5.75;;;;;;;15.01;92.13;101015.38;1752757;80;21047;-76
2022/08/30 03:32:46;;;;;;;7.47;6.05;;;;;;;15.08;92.38;101021.25;1750418;80;21520;-77
2022/08/30 03:35:15;;;;;;;8.30;5.30;;;;;;;15.16;92.48;101016.47;1749577;80;21552;-77
2022/08/30 03:37:42;;;;;;;6.67;5.67;;;;;;;15.23;92.70;101015.24;1761602;80;21175;-77
2022/08/30 03:40:12;;;;;;;6.12;5.12;;;;;;;15.28;92.69;101021.17;1759534;80;21497;-77
2022/08/30 03:42:40;;;;;;;7.65;5.87;;;;;;;15.32;92.67;101017.44;1745068;80;21686;-77
2022/08/30 03:45:08;;;;;;;10.48;5.80;;;;;;;15.37;92.78;101023.37;1742562;80;20980;-77
2022/08/30 03:47:36;;;;;;;8.60;6.37;;;;;;;15.39;92.58;101020.20;1773714;79;21103;-83
2022/08/30 03:50:05;;;;;;;10.15;6.30;;;;;;;15.42;92.39;101020.99;1779951;80;21911;-77
2022/08/30 03:52:32;;;;;;;7.50;5.93;;;;;;;15.44;92.47;101023.11;1761438;80;21524;-84
2022/08/30 03:55:00;;;;;;;11.45;6.37;;;;;;;15.47;92.62;101026.45;1773138;79;21031;-80
2022/08/30 03:57:28;;;;;;;9.60;6.28;;;;;;;15.50;92.68;101024.98;1758056;80;20991;-85
2022/08/30 03:59:55;;;;;;;6.62;5.78;;;;;;;15.55;92.71;101032.70;1754312;80;21001;-84
2022/08/30 04:02:22;;;;;;;8.48;5.80;;;;;;;15.59;92.83;101030.28;1759483;80;21370;-82
2022/08/30 04:04:49;;;;;;;10.30;6.50;;;;;;;15.65;92.81;101034.42;1756753;81;21052;-79
2022/08/30 04:07:18;;;;;;;7.55;6.33;;;;;;;15.68;92.77;101033.83;1756422;81;20988;-77
2022/08/30 04:09:46;;;;;;;7.10;6.35;;;;;;;15.74;92.89;101040.61;1767121;80;20988;-78
2022/08/30 04:12:13;;;;;;;8.00;6.60;;;;;;;15.76;92.69;101038.75;1746283;80;21137;-81
2022/08/30 04:14:40;;;;;;;10.45;6.78;;;;;;;15.78;92.55;101041.72;1768047;81;21118;-85
2022/08/30 04:17:07;;;;;;;9.85;6.37;;;;;;;15.79;92.66;101042.09;1769680;80;21000;-77
2022/08/30 04:19:33;;;;;;;10.93;6.80;;;;;;;15.80;92.50;101042.98;1765740;80;21070;-77
2022/08/30 04:22:00;;;;;;;7.67;6.33;;;;;;;15.80;92.71;101045.15;1749433;80;21451;-77
2022/08/30 04:24:27;;;;;;;7.35;6.33;;;;;;;15.81;92.71;101036.75;1731958;81;21051;-81
2022/08/30 04:26:55;;;;;;;8.78;7.12;;;;;;;15.81;92.81;101036.75;1771145;81;21569;-77
2022/08/30 04:29:22;;;;;;;12.00;7.85;;;;;;;15.85;92.86;101043.58;1769335;80;21023;-84
2022/08/30 04:31:49;;;;;;;11.63;8.83;;;;;;;15.88;92.86;101045.22;1744704;80;21065;-77
2022/08/30 04:34:15;;;;;;;10.08;7.83;;;;;;;15.90;92.82;101049.50;1768625;80;21035;-85
2022/08/30 04:36:43;;;;;;;11.80;8.10;;;;;;;15.90;92.84;101058.76;1739962;80;21521;-76
2022/08/30 04:39:10;;;;;;;10.78;8.83;;;;;;;15.90;92.99;101060.08;1742701;80;21133;-80
2022/08/30 04:41:39;;;;;;;12.15;8.55;;;;;;;15.93;93.05;101057.76;1770952;80;20931;-84
2022/08/30 04:44:06;;;;;;;11.25;8.43;;;;;;;15.93;93.00;101059.08;1735900;80;21083;-83
2022/08/30 04:46:35;;;;;;;16.70;10.03;;;;;;;15.90;93.17;101056.12;1734062;80;21063;-82
2022/08/30 04:49:05;;;;;;;14.58;9.60;;;;;;;15.95;93.09;101062.04;1703740;84;21553;-84
2022/08/30 04:51:32;;;;;;;15.03;10.35;;;;;;;15.97;93.29;101061.51;1732728;82;21890;-80
2022/08/30 04:53:59;;;;;;;14.55;10.08;;;;;;;15.99;93.30;101070.23;1767397;80;21063;-82
2022/08/30 04:56:26;;;;;;;14.73;9.65;;;;;;;16.03;93.19;101072.25;1703212;83;20991;-83
2022/08/30 04:58:54;;;;;;;14.20;9.83;;;;;;;16.02;93.29;101071.87;1737794;81;21524;-78
2022/08/30 05:01:26;;;;;;;15.35;9.88;;;;;;;16.02;93.29;101071.87;1777268;80;21147;-78
2022/08/30 05:03:54;;;;;;;16.00;10.13;;;;;;;16.08;93.39;101068.06;1775882;80;21124;-82
2022/08/30 05:06:25;;;;;;;12.37;9.58;;;;;;;16.09;93.44;101070.62;1747150;79;21047;-77
2022/08/30 05:08:53;;;;;;;13.55;9.18;;;;;;;16.13;93.41;101077.92;1769633;79;21000;-77
2022/08/30 05:11:21;;;;;;;13.00;9.25;;;;;;;16.13;93.39;101073.95;1759367;80;21425;-77
2022/08/30 05:13:48;;;;;;;12.10;9.08;;;;;;;16.15;93.36;101076.07;1736793;80;21075;-77
2022/08/30 05:16:21;;;;;;;12.88;9.83;;;;;;;16.18;93.78;101072.80;1765732;79;21087;-77
2022/08/30 05:18:46;;;;;;;13.45;10.05;;;;;;;16.22;93.97;101081.45;1744970;80;21485;-77
2022/08/30 05:21:18;;;;;;;14.83;9.73;;;;;;;16.22;93.97;101081.45;1744642;79;21019;-77
2022/08/30 05:23:45;;;;;;;12.30;9.73;;;;;;;16.21;93.58;101082.38;1742237;79;21058;-77
2022/08/30 05:26:18;;;;;;;15.15;10.58;;;;;;;16.23;93.72;101084.48;1746433;79;21035;-77
2022/08/30 05:28:45;;;;;;;13.88;10.78;;;;;;;16.23;93.67;101080.52;1744779;80;21333;-77
2022/08/30 05:31:18;;;;;;;15.48;11.28;;;;;;;16.23;93.58;101082.69;1745765;80;20993;-77
2022/08/30 05:33:46;;;;;;;14.95;10.58;;;;;;;16.22;93.43;101080.98;1760145;80;21062;-78
2022/08/30 05:36:16;;;;;;;13.58;10.32;;;;;;;16.22;93.74;101086.75;1744902;79;21059;-83
2022/08/30 05:38:44;;;;;;;15.68;11.00;;;;;;;16.23;93.95;101090.63;1764421;80;21607;-79
2022/08/30 05:41:11;;;;;;;14.78;10.32;;;;;;;16.23;93.94;101091.95;1775394;80;21098;-78
2022/08/30 05:43:39;;;;;;;13.35;10.45;;;;;;;16.21;93.78;101094.27;1746639;80;21079;-79
2022/08/30 05:46:10;;;;;;;13.22;10.32;;;;;;;16.18;94.06;101096.60;1764341;80;21013;-84
2022/08/30 05:48:39;;;;;;;12.73;10.35;;;;;;;16.20;94.13;101094.74;1765877;80;21064;-76
2022/08/30 05:51:17;;;;;;;10.03;8.78;;;;;;;16.24;94.23;101097.64;1766540;80;21022;-76
2022/08/30 05:53:45;;;;;;;13.03;10.00;;;;;;;16.28;94.21;101094.37;1768275;79;21875;-80
2022/08/30 05:56:16;;;;;;;12.53;9.78;;;;;;;16.30;94.43;101099.13;1772008;79;21428;-81
2022/08/30 05:58:43;;;;;;;11.57;9.85;;;;;;;16.31;94.21;101099.98;1772363;80;21089;-78
2022/08/30 06:01:27;;;;;;;13.08;9.83;;;;;;;16.32;94.20;101099.03;1771228;80;21079;-81
2022/08/30 06:03:56;;;;;;;14.30;9.35;;;;;;;16.30;94.41;101092.98;1767457;80;21089;-81
2022/08/30 06:06:23;;;;;;;12.83;10.37;;;;;;;16.36;94.56;101096.17;1769983;80;21718;-80
2022/08/30 06:08:50;;;;;;;13.08;10.32;;;;;;;16.39;94.51;101092.05;1767687;80;21066;-75
2022/08/30 06:11:21;;;;;;;11.33;9.48;;;;;;;16.43;94.59;101094.06;1770777;80;21063;-78
2022/08/30 06:13:49;;;;;;;13.30;10.23;;;;;;;16.45;94.60;101098.34;1771037;80;21023;-81
2022/08/30 06:16:18;;;;;;;12.88;10.10;;;;;;;16.46;94.53;101092.58;1766797;80;21054;-76
2022/08/30 06:18:47;;;;;;;11.88;9.93;;;;;;;16.49;94.71;101090.66;1766648;80;21561;-79
2022/08/30 06:21:24;;;;;;;14.05;11.00;;;;;;;16.55;94.70;101096.58;1769457;80;21630;-79
2022/08/30 06:23:52;;;;;;;15.32;11.00;;;;;;;16.58;94.73;101089.33;1769370;80;21441;-81
2022/08/30 06:26:19;;;;;;;12.40;10.55;;;;;;;16.62;94.67;101096.63;1767980;80;21049;-82
2022/08/30 06:28:47;;;;;;;14.80;9.98;;;;;;;16.64;94.48;101096.95;1768107;80;20989;-80
2022/08/30 06:31:18;;;;;;;12.80;9.65;;;;;;;16.68;94.63;101098.52;1766512;80;22448;-79
2022/08/30 06:33:45;;;;;;;11.83;9.83;;;;;;;16.71;94.71;101094.83;1766526;80;21014;-77
2022/08/30 06:36:18;;;;;;;10.70;9.43;;;;;;;16.72;94.55;101100.05;1769813;80;21023;-82
2022/08/30 06:38:55;;;;;;;11.25;9.28;;;;;;;16.72;94.55;101096.09;1767818;79;21070;-81
2022/08/30 06:41:27;;;;;;;13.38;10.18;;;;;;;16.76;94.89;101101.22;1739034;80;21046;-77
2022/08/30 06:43:55;;;;;;;14.03;9.88;;;;;;;16.81;94.50;101108.49;1764814;80;21122;-78
2022/08/30 06:46:29;;;;;;;13.10;10.18;;;;;;;16.80;94.11;101110.30;1765219;79;21085;-76
2022/08/30 06:49:00;;;;;;;12.40;10.00;;;;;;;16.80;94.11;101110.30;1765683;79;21091;-78
2022/08/30 06:51:34;;;;;;;11.18;8.58;;;;;;;16.87;94.85;101106.38;1766346;80;21030;-76
2022/08/30 06:54:04;;;;;;;8.75;7.85;;;;;;;16.90;94.60;101104.92;1766576;80;21065;-77
2022/08/30 06:56:31;;;;;;;9.53;7.97;;;;;;;16.97;94.71;101104.59;1767385;79;21116;-76
2022/08/30 06:59:00;;;;;;;7.65;6.83;;;;;;;17.02;94.65;101107.86;1765838;79;21019;-76
2022/08/30 07:01:30;;;;;;;7.30;6.28;;;;;;;17.05;94.36;101105.89;1766870;80;21138;-76
2022/08/30 07:03:59;;;;;;;8.30;6.67;;;;;;;17.06;94.31;101104.94;1764233;80;21081;-76
2022/08/30 07:06:28;;;;;;;6.85;6.15;;;;;;;17.12;94.49;101103.28;1765378;80;21023;-76
2022/08/30 07:08:55;;;;;;;8.47;5.93;;;;;;;17.20;94.44;101114.81;1764240;79;21864;-77
2022/08/30 07:11:35;;;;;;;7.10;5.65;;;;;;;17.22;94.10;101110.30;1764695;79;21044;-81
2022/08/30 07:14:05;;;;;;;;;;;;;;;17.26;93.97;101114.47;1770437;79;20996;-81
2022/08/30 07:16:32;;;;;;;;;;;;;;;17.34;94.27;101109.62;1772199;80;20343;-81
2022/08/30 07:19:01;;;;;;;6.17;4.75;;;;;;;17.44;93.93;101115.77;1768356;80;20529;-81
2022/08/30 07:21:36;;;;;;;6.25;4.97;;;;;;;17.48;93.69;101115.50;1764646;79;21133;-84
2022/08/30 07:24:06;;;;;;;5.42;4.78;;;;;;;17.50;93.34;101113.62;1766376;80;21046;-80
2022/08/30 07:26:47;;;;;;;7.65;4.58;;;;;;;17.57;93.15;101117.66;1765264;79;21034;-81
2022/08/30 07:29:13;;;;;;;8.18;6.42;;;;;;;17.60;92.77;101122.80;1767591;80;21650;-79
2022/08/30 07:31:40;;;;;;;8.40;6.80;;;;;;;17.64;92.95;101128.77;1772045;80;21012;-75
2022/08/30 07:34:08;;;;;;;8.33;6.53;;;;;;;17.69;93.02;101128.05;1768822;80;22036;-79
2022/08/30 07:36:37;;;;;;;10.85;7.42;;;;;;;17.74;93.13;101131.80;1763397;80;21018;-80
2022/08/30 07:39:05;;;;;;;10.70;7.25;;;;;;;17.82;93.23;101138.41;1765098;80;21524;-77
2022/08/30 07:41:37;;;;;;;7.72;6.28;;;;;;;17.90;92.90;101137.11;1764724;80;21456;-79
2022/08/30 07:44:06;;;;;;;6.83;5.65;;;;;;;17.90;92.32;101145.91;1771160;80;21011;-77
2022/08/30 07:46:33;;;;;;;8.88;6.00;;;;;;;17.92;92.49;101146.69;1764748;80;21130;-77
2022/08/30 07:49:01;;;;;;;7.37;6.10;;;;;;;18.00;92.61;101141.81;1764552;80;21008;-77
2022/08/30 07:51:28;;;;;;;7.20;5.58;;;;;;;18.05;92.60;101144.22;1768707;80;21504;-77
2022/08/30 07:53:56;;;;;;;6.78;5.80;;;;;;;18.09;92.39;101141.76;1764581;80;21038;-77
2022/08/30 07:56:24;;;;;;;7.78;5.50;;;;;;;18.11;92.29;101144.34;1769499;79;21274;-76
2022/08/30 07:58:52;;;;;;;7.25;5.45;;;;;;;18.18;92.17;101147.02;1763214;80;21082;-77
2022/08/30 08:01:20;;;;;;;6.65;5.60;;;;;;;18.19;91.76;101147.41;1770898;80;21501;-77
2022/08/30 08:03:49;;;;;;;5.58;4.97;;;;;;;18.18;91.32;101148.34;1767737;80;21515;-77
2022/08/30 08:06:19;;;;;;;5.95;5.33;;;;;;;18.18;91.41;101152.31;1770950;80;21037;-77
2022/08/30 08:08:46;;;;;;;5.28;4.78;;;;;;;18.23;91.50;101156.42;1767650;80;21147;-76
2022/08/30 08:11:24;;;;;;;5.92;4.97;;;;;;;18.26;91.37;101155.39;1765667;80;21344;-77
2022/08/30 08:13:53;;;;;;;5.37;4.53;;;;;;;18.27;90.85;101162.42;1768526;80;20984;-76
2022/08/30 08:16:23;;;;;;;4.92;4.33;;;;;;;18.28;91.20;101159.67;1773757;80;22033;-76
2022/08/30 08:18:51;;;;;;;6.03;4.33;;;;;;;18.35;91.04;101166.83;1770990;80;21034;-76
2022/08/30 08:21:20;;;;;;;5.10;4.00;;;;;;;18.40;91.00;101164.77;1767330;80;22317;-76
2022/08/30 08:23:47;;;;;;;5.65;4.30;;;;;;;18.42;90.58;101162.01;1769117;80;21155;-77
2022/08/30 08:26:14;;;;;;;4.30;3.90;;;;;;;18.46;90.58;101163.56;1769390;80;21039;-76
2022/08/30 08:28:43;;;;;;;5.83;4.40;;;;;;;18.51;90.62;101168.11;1770449;80;21022;-76
2022/08/30 08:31:23;;;;;;;6.47;4.40;;;;;;;18.58;90.54;101165.48;1771875;80;21022;-76
2022/08/30 08:33:50;;;;;;;5.20;4.20;;;;;;;18.63;90.29;101170.06;1767734;80;21605;-76
2022/08/30 08:36:17;;;;;;;5.10;4.12;;;;;;;18.68;90.33;101167.15;1773555;80;21115;-75
2022/08/30 08:38:44;;;;;;;4.45;3.80;;;;;;;18.76;90.25;101173.34;1769228;80;21481;-76
2022/08/30 08:41:28;;;;;;;4.42;4.00;;;;;;;18.86;90.46;101176.70;1770890;80;21503;-76
2022/08/30 08:43:56;;;;;;;5.83;4.25;;;;;;;18.91;89.66;101178.61;1767653;80;21081;-76
2022/08/30 08:46:39;;;;;;;5.47;3.80;;;;;;;19.01;90.08;101178.05;1768244;80;21043;-77
2022/08/30 08:49:07;;;;;;;4.85;3.55;;;;;;;19.13;90.30;101185.30;1771856;79;21257;-76
2022/08/30 08:54:48;;;;;;;4.03;3.62;;;;;;;19.42;90.37;101186.65;1770955;79;21054;-76
2022/08/30 08:57:15;;;;;;;4.60;4.05;;;;;;;19.56;90.03;101185.31;1768836;80;21487;-76
2022/08/30 08:59:44;;;;;;;5.28;4.33;;;;;;;19.75;90.14;101187.23;1766817;80;22437;-76
2022/08/30 09:02:30;;;;;;;6.03;4.03;;;;;;;19.91;89.82;101188.94;1767276;80;21180;-77
2022/08/30 09:05:01;;;;;;;4.58;3.90;;;;;;;20.04;90.06;101193.37;1771491;79;21038;-77
2022/08/30 09:07:34;;;;;;;4.53;3.92;;;;;;;20.19;89.42;101189.34;1768265;79;21054;-76
2022/08/30 09:10:03;;;;;;;4.67;3.90;;;;;;;20.30;89.21;101184.66;1766257;79;21011;-76
2022/08/30 09:12:30;;;;;;;4.40;3.30;;;;;;;20.49;89.72;101190.48;1766218;80;21556;-76
2022/08/30 09:15:14;;;;;;;4.42;3.58;;;;;;;20.64;89.17;101183.30;1766039;80;21609;-76
2022/08/30 09:18:05;;;;;;;3.33;3.02;;;;;;;20.77;88.78;101187.34;1762663;80;21501;-77
2022/08/30 09:20:39;;;;;;;6.12;3.27;;;;;;;20.86;88.16;101180.05;1764509;80;21054;-77
2022/08/30 09:23:21;;;;;;;3.87;3.30;;;;;;;21.03;87.89;101178.41;1764696;80;21476;-76
2022/08/30 09:26:05;;;;;;;3.45;2.95;;;;;;;21.08;87.34;101180.77;1765100;80;22496;-76
2022/08/30 09:28:50;;;;;;;4.20;3.08;;;;;;;21.08;86.42;101173.63;1770862;80;21193;-76
2022/08/30 09:31:28;;;;;;;3.60;3.27;;;;;;;21.11;86.36;101169.89;1767833;80;22020;-82
2022/08/30 09:34:06;;;;;;;4.28;3.25;;;;;;;21.21;86.10;101169.64;1758073;80;21001;-76
2022/08/30 09:36:52;;;;;;;2.90;2.60;;;;;;;21.29;85.90;101169.12;1743514;80;21019;-77
2022/08/30 09:39:27;;;;;;;2.85;2.47;;;;;;;21.40;85.38;101164.40;1765812;80;20984;-78
2022/08/30 09:41:56;;;;;;;3.42;2.95;;;;;;;21.45;84.76;101171.56;1751652;80;21300;-77
2022/08/30 09:44:31;;;;;;;2.60;2.40;;;;;;;21.55;84.71;101165.97;1762100;79;21318;-78
2022/08/30 09:46:59;;;;;;;3.95;2.72;;;;;;;21.64;84.29;101170.64;1775747;80;21290;-85
2022/08/30 09:49:46;;;;;;;2.90;2.20;;;;;;;21.79;84.22;101170.04;1771438;80;20960;-79
2022/08/30 09:52:42;;;;;;;3.40;2.58;;;;;;;21.87;83.33;101166.34;1758809;79;21510;-78
2022/08/30 09:55:24;;;;;;;2.50;2.30;;;;;;;21.97;82.21;101170.52;1760134;80;21086;-77
2022/08/30 09:58:25;;;;;;;2.50;2.30;;;;;;;22.01;81.98;101164.00;1742434;80;21047;-80
2022/08/30 10:01:10;;;;;;;3.55;2.50;;;;;;;22.02;81.70;101161.20;1720733;82;21016;-79
2022/08/30 10:03:54;;;;;;;2.80;2.17;;;;;;;21.94;80.82;101166.73;1720314;83;21073;-78
2022/08/30 10:06:42;;;;;;;2.42;2.17;;;;;;;22.03;81.51;101160.72;1708674;83;21160;-79
2022/08/30 10:09:57;;;;;;;2.92;2.30;;;;;;;22.26;81.26;101157.25;1719162;83;21088;-81
2022/08/30 10:12:42;;;;;;;3.05;2.60;;;;;;;22.53;81.10;101158.84;1716186;83;21549;-83
2022/08/30 10:15:35;;;;;;;2.40;2.20;;;;;;;22.62;79.74;101159.95;1715246;83;21148;-89
2022/08/30 10:18:11;;;;;;;2.42;2.22;;;;;;;22.82;79.69;101160.62;1716881;82;21013;-81
2022/08/30 10:20:50;;;;;;;3.15;2.08;;;;;;;22.98;79.27;101153.65;1667283;85;21099;-80
2022/08/30 10:23:34;;;;;;;2.67;1.80;;;;;;;23.13;78.43;101156.94;1677483;84;21970;-82
2022/08/30 10:26:16;;;;;;;2.45;2.25;;;;;;;23.30;77.94;101147.59;1669413;85;21156;-78
2022/08/30 10:28:52;;;;;;;2.77;2.17;;;;;;;23.42;77.11;101147.10;1676144;85;21075;-80
2022/08/30 10:31:27;;;;;;;1.98;1.77;;;;;;;23.53;76.50;101153.82;1680841;85;21115;-80
2022/08/30 10:34:00;;;;;;;2.60;2.17;;;;;;;23.68;76.10;101144.55;1671248;85;21080;-79
2022/08/30 10:36:44;;;;;;;2.70;2.10;;;;;;;23.90;75.89;101142.84;1670142;85;21132;-79
2022/08/30 10:39:20;;;;;;;2.65;2.10;;;;;;;24.04;75.24;101146.58;1677680;84;21587;-81
2022/08/30 10:41:56;;;;;;;2.22;2.02;;;;;;;24.16;74.73;101146.05;1701617;84;21051;-82
2022/08/30 10:44:31;;;;;;;2.05;1.70;;;;;;;24.31;74.57;101146.14;1705762;83;21068;-94
2022/08/30 10:47:15;;;;;;;2.12;1.92;;;;;;;24.52;73.90;101144.84;1743177;81;21039;-80
2022/08/30 10:49:53;;;;;;;2.00;1.80;;;;;;;24.62;73.14;101142.25;1748914;80;21118;-81
2022/08/30 10:52:48;;;;;;;2.13;1.80;;;;;;;24.49;72.26;101138.41;1766340;80;21034;-80
2022/08/30 10:55:29;;;;;;;2.02;1.80;;;;;;;24.49;71.85;101132.55;1769184;80;21838;-81
2022/08/30 10:58:03;;;;;;;2.22;2.02;;;;;;;24.75;72.35;101127.30;1761201;79;21020;-83
2022/08/30 11:00:41;;;;;;;1.85;1.75;;;;;;;24.95;71.97;101123.77;1757928;80;21058;-80
2022/08/30 11:03:50;;;;;;;2.20;2.00;;;;;;;25.12;71.48;101119.62;1756702;80;21997;-79
2022/08/30 11:06:48;;;;;;;2.10;1.87;;;;;;;25.30;70.88;101119.41;1764376;79;21520;-80
2022/08/30 11:09:21;;;;;;;2.02;1.80;;;;;;;25.37;69.06;101124.56;1750569;79;20999;-81
2022/08/30 11:12:28;;;;;;;2.60;2.10;;;;;;;25.37;68.79;101123.73;1742504;79;21421;-80
2022/08/30 11:14:56;;;;;;;2.42;2.10;;;;;;;25.50;68.11;101120.81;1754806;79;21050;-80
2022/08/30 11:17:32;;;;;;;2.17;1.98;;;;;;;25.71;68.12;101120.22;1751770;80;21167;-79
2022/08/30 11:20:02;;;;;;;2.55;2.25;;;;;;;25.62;66.86;101109.47;1762155;80;20939;-80
2022/08/30 11:22:36;;;;;;;2.37;2.17;;;;;;;25.58;67.37;101109.75;1759436;79;20943;-80
2022/08/30 11:25:17;;;;;;;2.90;2.22;;;;;;;25.82;67.64;101102.65;1750997;79;21011;-79
2022/08/30 11:27:58;;;;;;;3.12;2.30;;;;;;;25.79;66.74;101102.08;1705095;83;21604;-80
2022/08/30 11:30:31;;;;;;;2.80;2.22;;;;;;;25.70;66.13;101098.90;1757229;80;22086;-79
2022/08/30 11:33:06;;;;;;;1.72;1.45;;;;;;;25.50;65.41;101097.50;1758127;79;20983;-78
2022/08/30 11:35:42;;;;;;;1.75;1.60;;;;;;;25.52;65.41;101094.20;1762697;80;21515;-78
2022/08/30 11:38:20;;;;;;;3.05;1.60;;;;;;;25.62;64.55;101092.87;1775983;80;21042;-80
2022/08/30 11:41:14;;;;;;;2.15;1.62;;;;;;;25.50;64.09;101086.77;1751112;80;21043;-80
2022/08/30 11:43:48;;;;;;;2.58;1.40;;;;;;;25.52;64.04;101095.54;1745001;80;21162;-80
2022/08/30 11:46:29;;;;;;;2.40;1.40;;;;;;;25.69;63.24;101086.44;1744323;80;21457;-80
2022/08/30 11:49:14;;;;;;;2.05;1.50;;;;;;;25.68;62.96;101082.06;1746357;80;20906;-81